General Aviation Weather

Text Reports

Enter one or more of the following location identifiers separated by a space:

Zip Code, Four-Character ICAO or Three-Character IATA airport codes.

METAR - Aviation Routine Weather Report
KLXT - Lee's Summit, Missouri
Updated at 8:53 PM GMT on October 01, 2014 (3:53 PM CDT):
METAR KLXT 302053Z AUTO 17008G17KT 10SM FEW070 28/13 A2982 RMK AO2 SLP090 T02830133 56024
TAF - Terminal Area Forecast
KLXT - Lee's Summit, Missouri
Updated at 8:53 PM GMT on October 01, 2014 (3:53 PM CDT):
No TAF is currently available for this location.
Decoded:
No decoded TAF is available.
PIREP - Pilot Weather Report
KLXT - Lee's Summit, Missouri
Updated at 8:53 PM GMT on October 01, 2014 (3:53 PM CDT):
No PIREP is currently available for this location.
AIRMET - Airmens Meteorological Information
KLXT - Lee's Summit, Missouri
Updated at 8:53 PM GMT on October 01, 2014 (3:53 PM CDT):
No AIRMET is currently available for this location.
SIGMET - Significant Meteorological Information
KLXT - Lee's Summit, Missouri
Updated at 8:53 PM GMT on October 01, 2014 (3:53 PM CDT):
No SIGMET is currently available for this location.
NOTAM - Notice to Airmen
KLXT - Lee's Summit, Missouri
Updated at 8:53 PM GMT on October 01, 2014 (3:53 PM CDT):
No NOTAM is currently available for this location.
Forecast Area
KLXT - Lee's Summit, Missouri
Updated at 8:53 PM GMT on October 01, 2014 (3:53 PM CDT):
No NOTAM is currently available for this location.
Aviation Weather Maps